Time,TemperatureF,DewpointF,PressureIn,WindDirection,WindDirectionDegrees,WindSpeedMPH,WindSpeedGustMPH,Humidity,HourlyPrecipIn,Conditions,Clouds,dailyrainin,SoftwareType,DateUTC
2013-05-18 00:05:00,68.8,28.4,29.81,SSW,205,9.0,9.0,22,0.00,,,0.00,Wunderground v.1.15,2013-05-18 07:05:00,
2013-05-18 00:15:00,68.6,28.2,29.81,SSW,200,7.0,8.0,22,0.00,,,0.00,Wunderground v.1.15,2013-05-18 07:15:00,
2013-05-18 00:20:00,68.4,29.1,29.81,SW,230,7.0,7.0,23,0.00,,,0.00,Wunderground v.1.15,2013-05-18 07:20:00,
2013-05-18 00:25:00,68.3,29.0,29.82,South,178,8.0,8.0,23,0.00,,,0.00,Wunderground v.1.15,2013-05-18 07:25:00,
2013-05-18 00:35:00,68.1,29.9,29.82,South,190,6.0,8.0,24,0.00,,,0.00,Wunderground v.1.15,2013-05-18 07:35:00,
2013-05-18 00:40:00,68.1,30.9,29.82,SSW,213,7.0,7.0,25,0.00,,,0.00,Wunderground v.1.15,2013-05-18 07:40:00,
2013-05-18 00:45:00,67.9,30.8,29.81,SSW,212,6.0,7.0,25,0.00,,,0.00,Wunderground v.1.15,2013-05-18 07:45:00,
2013-05-18 00:50:00,67.8,30.7,29.81,South,173,6.0,12.0,25,0.00,,,0.00,Wunderground v.1.15,2013-05-18 07:50:00,
2013-05-18 00:55:00,67.9,30.8,29.81,SW,215,8.0,12.0,25,0.00,,,0.00,Wunderground v.1.15,2013-05-18 07:55:00,
2013-05-18 01:00:00,67.8,31.6,29.81,SSE,167,7.0,8.0,26,0.00,,,0.00,Wunderground v.1.15,2013-05-18 08:00:00,
2013-05-18 01:05:00,67.9,32.7,29.80,SW,225,7.0,8.0,27,0.00,,,0.00,Wunderground v.1.15,2013-05-18 08:05:00,
2013-05-18 01:15:00,68.1,32.8,29.80,SW,229,12.0,15.0,27,0.00,,,0.00,Wunderground v.1.15,2013-05-18 08:15:00,
2013-05-18 01:20:00,67.9,32.7,29.80,SSW,198,11.0,11.0,27,0.00,,,0.00,Wunderground v.1.15,2013-05-18 08:20:00,
2013-05-18 01:25:00,68.3,33.9,29.80,SSW,200,11.0,11.0,28,0.00,,,0.00,Wunderground v.1.15,2013-05-18 08:25:00,
2013-05-18 01:30:00,67.9,33.6,29.80,SSW,200,11.0,11.0,28,0.00,,,0.00,Wunderground v.1.15,2013-05-18 08:30:00,
2013-05-18 01:35:00,67.8,34.4,29.80,South,172,12.0,12.0,29,0.00,,,0.00,Wunderground v.1.15,2013-05-18 08:35:00,
2013-05-18 01:40:00,67.4,33.1,29.79,SW,228,12.0,12.0,28,0.00,,,0.00,Wunderground v.1.15,2013-05-18 08:40:00,
2013-05-18 01:50:00,67.4,34.0,29.80,SSW,202,10.0,10.0,29,0.00,,,0.00,Wunderground v.1.15,2013-05-18 08:50:00,
2013-05-18 01:55:00,67.3,33.9,29.79,SW,224,10.0,12.0,29,0.00,,,0.00,Wunderground v.1.15,2013-05-18 08:55:00,
2013-05-18 02:00:00,67.6,34.2,29.79,SSW,196,11.0,12.0,29,0.00,,,0.00,Wunderground v.1.15,2013-05-18 09:00:00,
2013-05-18 02:05:00,67.6,33.3,29.79,SSW,200,11.0,14.0,28,0.00,,,0.00,Wunderground v.1.15,2013-05-18 09:05:00,
2013-05-18 02:15:00,67.1,32.0,29.79,SE,142,11.0,22.0,27,0.00,,,0.00,Wunderground v.1.15,2013-05-18 09:15:00,
2013-05-18 02:25:00,67.3,32.1,29.78,South,184,12.0,14.0,27,0.00,,,0.00,Wunderground v.1.15,2013-05-18 09:25:00,
2013-05-18 02:30:00,67.1,31.0,29.78,SSW,197,12.0,12.0,26,0.00,,,0.00,Wunderground v.1.15,2013-05-18 09:30:00,
2013-05-18 02:35:00,67.4,29.3,29.78,South,178,12.0,16.0,24,0.00,,,0.00,Wunderground v.1.15,2013-05-18 09:35:00,
2013-05-18 02:40:00,67.3,29.2,29.78,SSW,196,11.0,18.0,24,0.00,,,0.00,Wunderground v.1.15,2013-05-18 09:40:00,
2013-05-18 02:45:00,67.1,32.9,29.78,South,173,11.0,18.0,28,0.00,,,0.00,Wunderground v.1.15,2013-05-18 09:45:00,
2013-05-18 02:55:00,66.9,25.7,29.77,SSW,195,10.0,11.0,21,0.00,,,0.00,Wunderground v.1.15,2013-05-18 09:55:00,
2013-05-18 03:00:00,67.1,24.6,29.77,South,190,13.0,21.0,20,0.00,,,0.00,Wunderground v.1.15,2013-05-18 10:00:00,
2013-05-18 03:05:00,66.9,25.7,29.77,South,171,15.0,21.0,21,0.00,,,0.00,Wunderground v.1.15,2013-05-18 10:05:00,
2013-05-18 03:15:00,66.4,24.1,29.78,SE,140,13.0,21.0,20,0.00,,,0.00,Wunderground v.1.15,2013-05-18 10:15:00,
2013-05-18 03:25:00,66.1,26.1,29.78,South,188,11.0,11.0,22,0.00,,,0.00,Wunderground v.1.15,2013-05-18 10:25:00,
2013-05-18 03:30:00,66.0,26.0,29.78,SSW,196,10.0,16.0,22,0.00,,,0.00,Wunderground v.1.15,2013-05-18 10:30:00,
2013-05-18 03:40:00,66.1,25.0,29.79,SSW,209,12.0,19.0,21,0.00,,,0.00,Wunderground v.1.15,2013-05-18 10:40:00,
2013-05-18 03:45:00,66.1,25.0,29.80,SSW,203,12.0,12.0,21,0.00,,,0.00,Wunderground v.1.15,2013-05-18 10:45:00,
2013-05-18 03:50:00,66.0,24.9,29.81,SW,235,10.0,12.0,21,0.00,,,0.00,Wunderground v.1.15,2013-05-18 10:50:00,
2013-05-18 03:55:00,66.0,22.5,29.81,WSW,244,10.0,10.0,19,0.00,,,0.00,Wunderground v.1.15,2013-05-18 10:55:00,
2013-05-18 04:00:00,66.0,22.5,29.81,SW,236,9.0,9.0,19,0.00,,,0.00,Wunderground v.1.15,2013-05-18 11:00:00,
2013-05-18 04:05:00,66.1,20.0,29.81,WNW,296,7.0,9.0,17,0.00,,,0.00,Wunderground v.1.15,2013-05-18 11:05:00,
2013-05-18 04:15:00,65.8,19.7,29.81,SE,142,4.0,5.0,17,0.00,,,0.00,Wunderground v.1.15,2013-05-18 11:15:00,
2013-05-18 04:20:00,65.6,19.6,29.81,SE,142,3.0,5.0,17,0.00,,,0.00,Wunderground v.1.15,2013-05-18 11:20:00,
2013-05-18 04:25:00,65.5,19.5,29.81,SSE,156,4.0,5.0,17,0.00,,,0.00,Wunderground v.1.15,2013-05-18 11:25:00,
2013-05-18 04:30:00,65.0,21.7,29.81,SSE,156,4.0,4.0,19,0.00,,,0.00,Wunderground v.1.15,2013-05-18 11:30:00,
2013-05-18 04:35:00,64.5,18.7,29.82,SSE,156,2.0,8.0,17,0.00,,,0.00,Wunderground v.1.15,2013-05-18 11:35:00,
2013-05-18 04:45:00,65.0,17.7,29.81,South,169,4.0,6.0,16,0.00,,,0.00,Wunderground v.1.15,2013-05-18 11:45:00,
2013-05-18 04:50:00,64.8,17.5,29.82,SSE,165,4.0,4.0,16,0.00,,,0.00,Wunderground v.1.15,2013-05-18 11:50:00,
2013-05-18 04:55:00,64.3,23.5,29.82,SE,144,4.0,6.0,21,0.00,,,0.00,Wunderground v.1.15,2013-05-18 11:55:00,
2013-05-18 05:00:00,59.9,25.8,29.81,SE,137,4.0,4.0,27,0.00,,,0.00,Wunderground v.1.15,2013-05-18 12:00:00,
2013-05-18 05:05:00,59.0,25.0,29.82,SE,137,4.0,4.0,27,0.00,,,0.00,Wunderground v.1.15,2013-05-18 12:05:00,
2013-05-18 05:15:00,62.7,18.5,29.82,SE,138,3.0,9.0,18,0.00,,,0.00,Wunderground v.1.15,2013-05-18 12:15:00,
2013-05-18 05:20:00,63.5,17.8,29.82,SE,140,4.0,6.0,17,0.00,,,0.00,Wunderground v.1.15,2013-05-18 12:20:00,
2013-05-18 05:30:00,63.9,18.2,29.82,SE,142,4.0,4.0,17,0.00,,,0.00,Wunderground v.1.15,2013-05-18 12:30:00,
2013-05-18 05:35:00,63.2,22.6,29.82,SE,142,3.0,4.0,21,0.00,,,0.00,Wunderground v.1.15,2013-05-18 12:35:00,
2013-05-18 05:40:00,62.4,20.8,29.82,SE,142,2.0,2.0,20,0.00,,,0.00,Wunderground v.1.15,2013-05-18 12:40:00,
2013-05-18 05:45:00,63.1,17.5,29.82,SE,142,2.0,2.0,17,0.00,,,0.00,Wunderground v.1.15,2013-05-18 12:45:00,
2013-05-18 05:50:00,64.0,18.3,29.82,SE,143,3.0,3.0,17,0.00,,,0.00,Wunderground v.1.15,2013-05-18 12:50:00,
2013-05-18 05:55:00,64.2,21.0,29.83,SE,144,3.0,4.0,19,0.00,,,0.00,Wunderground v.1.15,2013-05-18 12:55:00,
2013-05-18 06:00:00,64.3,19.8,29.83,SE,144,3.0,4.0,18,0.00,,,0.00,Wunderground v.1.15,2013-05-18 13:00:00,
2013-05-18 06:05:00,64.7,18.8,29.83,SE,143,3.0,5.0,17,0.00,,,0.00,Wunderground v.1.15,2013-05-18 13:05:00,
2013-05-18 06:15:00,65.2,16.3,29.83,SE,140,6.0,7.0,15,0.00,,,0.00,Wunderground v.1.15,2013-05-18 13:15:00,
2013-05-18 06:20:00,66.0,13.7,29.83,SE,142,7.0,8.0,13,0.00,,,0.00,Wunderground v.1.15,2013-05-18 13:20:00,
2013-05-18 06:25:00,66.6,10.4,29.83,SSW,213,8.0,8.0,11,0.00,,,0.00,Wunderground v.1.15,2013-05-18 13:25:00,
2013-05-18 06:30:00,66.9,10.6,29.83,SSE,154,8.0,8.0,11,0.00,,,0.00,Wunderground v.1.15,2013-05-18 13:30:00,
2013-05-18 06:35:00,67.3,14.7,29.83,SSE,159,7.0,8.0,13,0.00,,,0.00,Wunderground v.1.15,2013-05-18 13:35:00,
2013-05-18 06:40:00,66.9,17.7,29.84,SSE,157,8.0,10.0,15,0.00,,,0.00,Wunderground v.1.15,2013-05-18 13:40:00,
2013-05-18 06:45:00,67.1,14.5,29.84,SE,136,10.0,15.0,13,0.00,,,0.00,Wunderground v.1.15,2013-05-18 13:45:00,
2013-05-18 06:50:00,67.4,18.1,29.84,South,175,9.0,10.0,15,0.00,,,0.00,Wunderground v.1.15,2013-05-18 13:50:00,
2013-05-18 06:55:00,67.6,14.9,29.84,SSW,202,8.0,10.0,13,0.00,,,0.00,Wunderground v.1.15,2013-05-18 13:55:00,
2013-05-18 07:00:00,67.9,9.2,29.84,South,189,8.0,9.0,10,0.00,,,0.00,Wunderground v.1.15,2013-05-18 14:00:00,
2013-05-18 07:05:00,67.9,13.3,29.84,South,171,9.0,11.0,12,0.00,,,0.00,Wunderground v.1.15,2013-05-18 14:05:00,
2013-05-18 07:15:00,68.1,9.4,29.84,SSE,161,9.0,11.0,10,0.00,,,0.00,Wunderground v.1.15,2013-05-18 14:15:00,
2013-05-18 07:20:00,68.4,9.6,29.84,South,187,9.0,9.0,10,0.00,,,0.00,Wunderground v.1.15,2013-05-18 14:20:00,
2013-05-18 07:30:00,68.8,9.9,29.85,SE,135,9.0,9.0,10,0.00,,,0.00,Wunderground v.1.15,2013-05-18 14:30:00,
2013-05-18 07:35:00,68.8,9.9,29.85,SE,146,8.0,9.0,10,0.00,,,0.00,Wunderground v.1.15,2013-05-18 14:35:00,
2013-05-18 07:40:00,68.6,9.8,29.85,SE,142,9.0,15.0,10,0.00,,,0.00,Wunderground v.1.15,2013-05-18 14:40:00,
2013-05-18 07:45:00,68.9,12.2,29.85,SSE,160,11.0,15.0,11,0.00,,,0.00,Wunderground v.1.15,2013-05-18 14:45:00,
2013-05-18 07:50:00,68.9,14.1,29.86,SSE,159,10.0,10.0,12,0.00,,,0.00,Wunderground v.1.15,2013-05-18 14:50:00,
2013-05-18 07:55:00,69.3,12.5,29.86,SE,131,9.0,11.0,11,0.00,,,0.00,Wunderground v.1.15,2013-05-18 14:55:00,
2013-05-18 08:05:00,69.8,14.8,29.86,SSE,163,10.0,12.0,12,0.00,,,0.00,Wunderground v.1.15,2013-05-18 15:05:00,
2013-05-18 08:15:00,70.3,11.1,29.86,SSE,154,9.0,9.0,10,0.00,,,0.00,Wunderground v.1.15,2013-05-18 15:15:00,
2013-05-18 08:20:00,70.6,13.5,29.86,SE,142,8.0,8.0,11,0.00,,,0.00,Wunderground v.1.15,2013-05-18 15:20:00,
2013-05-18 08:25:00,71.3,14.0,29.86,SE,127,8.0,8.0,11,0.00,,,0.00,Wunderground v.1.15,2013-05-18 15:25:00,
2013-05-18 08:35:00,70.9,13.7,29.86,SSE,150,10.0,12.0,11,0.00,,,0.00,Wunderground v.1.15,2013-05-18 15:35:00,
2013-05-18 08:40:00,71.5,14.2,29.86,SSE,156,10.0,11.0,11,0.00,,,0.00,Wunderground v.1.15,2013-05-18 15:40:00,
2013-05-18 08:45:00,71.8,14.4,29.86,South,183,9.0,13.0,11,0.00,,,0.00,Wunderground v.1.15,2013-05-18 15:45:00,
2013-05-18 08:50:00,71.3,14.0,29.85,SSE,157,10.0,10.0,11,0.00,,,0.00,Wunderground v.1.15,2013-05-18 15:50:00,
2013-05-18 08:55:00,71.5,14.2,29.85,SSE,159,11.0,11.0,11,0.00,,,0.00,Wunderground v.1.15,2013-05-18 15:55:00,
2013-05-18 09:00:00,71.5,14.2,29.86,South,172,10.0,10.0,11,0.00,,,0.00,Wunderground v.1.15,2013-05-18 16:00:00,
2013-05-18 09:05:00,71.8,14.4,29.85,SW,225,9.0,10.0,11,0.00,,,0.00,Wunderground v.1.15,2013-05-18 16:05:00,
2013-05-18 09:15:00,72.5,16.9,29.85,South,181,9.0,12.0,12,0.00,,,0.00,Wunderground v.1.15,2013-05-18 16:15:00,
2013-05-18 09:20:00,73.0,15.3,29.85,SSW,209,8.0,10.0,11,0.00,,,0.00,Wunderground v.1.15,2013-05-18 16:20:00,
2013-05-18 09:25:00,73.0,15.3,29.85,South,174,7.0,10.0,11,0.00,,,0.00,Wunderground v.1.15,2013-05-18 16:25:00,
2013-05-18 09:30:00,72.8,15.2,29.85,SSE,155,9.0,11.0,11,0.00,,,0.00,Wunderground v.1.15,2013-05-18 16:30:00,
2013-05-18 09:40:00,73.7,15.9,29.85,South,184,9.0,9.0,11,0.00,,,0.00,Wunderground v.1.15,2013-05-18 16:40:00,
2013-05-18 09:45:00,73.9,13.8,29.85,SSE,159,9.0,9.0,10,0.00,,,0.00,Wunderground v.1.15,2013-05-18 16:45:00,
2013-05-18 09:50:00,74.0,13.9,29.85,SSW,196,10.0,10.0,10,0.00,,,0.00,Wunderground v.1.15,2013-05-18 16:50:00,
2013-05-18 09:55:00,74.4,14.2,29.85,SSE,156,10.0,11.0,10,0.00,,,0.00,Wunderground v.1.15,2013-05-18 16:55:00,
2013-05-18 10:00:00,74.4,16.4,29.85,SSW,203,10.0,12.0,11,0.00,,,0.00,Wunderground v.1.15,2013-05-18 17:00:00,
2013-05-18 10:05:00,74.0,16.1,29.85,SSE,161,10.0,12.0,11,0.00,,,0.00,Wunderground v.1.15,2013-05-18 17:05:00,
2013-05-18 10:15:00,74.2,16.3,29.85,SE,128,9.0,10.0,11,0.00,,,0.00,Wunderground v.1.15,2013-05-18 17:15:00,
2013-05-18 10:20:00,74.4,16.4,29.85,SSW,200,9.0,9.0,11,0.00,,,0.00,Wunderground v.1.15,2013-05-18 17:20:00,
2013-05-18 10:25:00,74.6,14.4,29.85,SSE,148,9.0,10.0,10,0.00,,,0.00,Wunderground v.1.15,2013-05-18 17:25:00,
2013-05-18 10:30:00,74.9,14.6,29.85,SE,134,10.0,14.0,10,0.00,,,0.00,Wunderground v.1.15,2013-05-18 17:30:00,
2013-05-18 10:35:00,75.3,14.9,29.84,SSE,161,10.0,14.0,10,0.00,,,0.00,Wunderground v.1.15,2013-05-18 17:35:00,
2013-05-18 10:45:00,75.3,14.9,29.84,South,175,9.0,12.0,10,0.00,,,0.00,Wunderground v.1.15,2013-05-18 17:45:00,
2013-05-18 10:50:00,76.3,15.7,29.85,SSE,166,9.0,12.0,10,0.00,,,0.00,Wunderground v.1.15,2013-05-18 17:50:00,
2013-05-18 10:55:00,75.6,15.1,29.85,SE,140,9.0,17.0,10,0.00,,,0.00,Wunderground v.1.15,2013-05-18 17:55:00,
2013-05-18 11:00:00,75.1,17.0,29.85,SE,141,10.0,10.0,11,0.00,,,0.00,Wunderground v.1.15,2013-05-18 18:00:00,
2013-05-18 11:05:00,75.4,15.0,29.85,SW,221,10.0,12.0,10,0.00,,,0.00,Wunderground v.1.15,2013-05-18 18:05:00,
2013-05-18 11:15:00,76.1,15.5,29.85,SE,141,9.0,9.0,10,0.00,,,0.00,Wunderground v.1.15,2013-05-18 18:15:00,
2013-05-18 11:20:00,76.5,15.8,29.85,SSE,156,9.0,10.0,10,0.00,,,0.00,Wunderground v.1.15,2013-05-18 18:20:00,
2013-05-18 11:25:00,75.8,15.3,29.84,SE,138,10.0,12.0,10,0.00,,,0.00,Wunderground v.1.15,2013-05-18 18:25:00,
2013-05-18 11:30:00,75.8,12.9,29.84,SSE,150,11.0,11.0,9,0.00,,,0.00,Wunderground v.1.15,2013-05-18 18:30:00,
2013-05-18 11:35:00,76.7,13.6,29.85,SSW,213,9.0,11.0,9,0.00,,,0.00,Wunderground v.1.15,2013-05-18 18:35:00,
2013-05-18 11:40:00,76.5,15.8,29.84,SSW,209,8.0,8.0,10,0.00,,,0.00,Wunderground v.1.15,2013-05-18 18:40:00,
2013-05-18 11:50:00,77.2,16.4,29.84,SSE,161,7.0,8.0,10,0.00,,,0.00,Wunderground v.1.15,2013-05-18 18:50:00,
2013-05-18 11:55:00,77.4,16.5,29.84,SE,128,8.0,13.0,10,0.00,,,0.00,Wunderground v.1.15,2013-05-18 18:55:00,
2013-05-18 12:00:00,77.6,14.2,29.83,SSE,152,9.0,9.0,9,0.00,,,0.00,Wunderground v.1.15,2013-05-18 19:00:00,
2013-05-18 12:05:00,77.7,14.3,29.83,SSW,193,8.0,9.0,9,0.00,,,0.00,Wunderground v.1.15,2013-05-18 19:05:00,
2013-05-18 12:15:00,78.3,14.8,29.83,South,185,6.0,9.0,9,0.00,,,0.00,Wunderground v.1.15,2013-05-18 19:15:00,
2013-05-18 12:25:00,78.3,12.1,29.83,South,173,9.0,11.0,8,0.00,,,0.00,Wunderground v.1.15,2013-05-18 19:25:00,
2013-05-18 12:30:00,78.1,11.9,29.83,WSW,246,8.0,8.0,8,0.00,,,0.00,Wunderground v.1.15,2013-05-18 19:30:00,
2013-05-18 12:35:00,78.5,12.2,29.82,SE,137,6.0,8.0,8,0.00,,,0.00,Wunderground v.1.15,2013-05-18 19:35:00,
2013-05-18 12:40:00,78.3,14.8,29.82,SE,138,4.0,4.0,9,0.00,,,0.00,Wunderground v.1.15,2013-05-18 19:40:00,
2013-05-18 12:45:00,78.5,14.9,29.82,SSE,161,6.0,10.0,9,0.00,,,0.00,Wunderground v.1.15,2013-05-18 19:45:00,
2013-05-18 12:55:00,79.8,10.2,29.81,SW,215,10.0,13.0,7,0.00,,,0.00,Wunderground v.1.15,2013-05-18 19:55:00,
2013-05-18 13:00:00,79.4,12.9,29.82,SW,225,9.0,10.0,8,0.00,,,0.00,Wunderground v.1.15,2013-05-18 20:00:00,
2013-05-18 13:05:00,79.6,13.1,29.81,SSE,165,8.0,10.0,8,0.00,,,0.00,Wunderground v.1.15,2013-05-18 20:05:00,
2013-05-18 13:15:00,79.8,10.2,29.81,SSE,165,7.0,9.0,7,0.00,,,0.00,Wunderground v.1.15,2013-05-18 20:15:00,
2013-05-18 13:20:00,78.6,12.3,29.82,SSE,148,9.0,9.0,8,0.00,,,0.00,Wunderground v.1.15,2013-05-18 20:20:00,
2013-05-18 13:30:00,79.8,13.2,29.82,WSW,240,9.0,9.0,8,0.00,,,0.00,Wunderground v.1.15,2013-05-18 20:30:00,
2013-05-18 13:35:00,78.8,15.1,29.82,SE,141,10.0,10.0,9,0.00,,,0.00,Wunderground v.1.15,2013-05-18 20:35:00,
2013-05-18 13:40:00,79.0,15.3,29.81,SE,141,6.0,6.0,9,0.00,,,0.00,Wunderground v.1.15,2013-05-18 20:40:00,
2013-05-18 13:45:00,79.8,15.9,29.81,SSW,197,5.0,8.0,9,0.00,,,0.00,Wunderground v.1.15,2013-05-18 20:45:00,
2013-05-18 13:50:00,79.6,15.8,29.82,SSW,210,8.0,14.0,9,0.00,,,0.00,Wunderground v.1.15,2013-05-18 20:50:00,
2013-05-18 13:55:00,79.4,15.6,29.81,SE,136,7.0,14.0,9,0.00,,,0.00,Wunderground v.1.15,2013-05-18 20:55:00,
2013-05-18 14:00:00,79.0,17.7,29.81,SSE,150,6.0,10.0,10,0.00,,,0.00,Wunderground v.1.15,2013-05-18 21:00:00,
2013-05-18 14:05:00,79.9,18.4,29.81,SSE,159,7.0,11.0,10,0.00,,,0.00,Wunderground v.1.15,2013-05-18 21:05:00,
2013-05-18 14:15:00,80.1,18.6,29.81,SE,137,6.0,7.0,10,0.00,,,0.00,Wunderground v.1.15,2013-05-18 21:15:00,
2013-05-18 14:20:00,80.5,18.9,29.81,SSE,167,8.0,9.0,10,0.00,,,0.00,Wunderground v.1.15,2013-05-18 21:20:00,
2013-05-18 14:25:00,80.3,18.7,29.80,South,179,9.0,9.0,10,0.00,,,0.00,Wunderground v.1.15,2013-05-18 21:25:00,
2013-05-18 14:30:00,79.8,18.3,29.80,SSE,167,9.0,9.0,10,0.00,,,0.00,Wunderground v.1.15,2013-05-18 21:30:00,
2013-05-18 14:35:00,79.9,18.4,29.80,South,175,8.0,10.0,10,0.00,,,0.00,Wunderground v.1.15,2013-05-18 21:35:00,
2013-05-18 14:40:00,80.5,18.9,29.79,SSE,167,8.0,9.0,10,0.00,,,0.00,Wunderground v.1.15,2013-05-18 21:40:00,
2013-05-18 14:45:00,80.1,18.6,29.80,WSW,246,9.0,9.0,10,0.00,,,0.00,Wunderground v.1.15,2013-05-18 21:45:00,
2013-05-18 14:50:00,79.9,18.4,29.80,SSW,198,7.0,7.0,10,0.00,,,0.00,Wunderground v.1.15,2013-05-18 21:50:00,
2013-05-18 14:55:00,80.3,18.7,29.80,SSW,206,6.0,9.0,10,0.00,,,0.00,Wunderground v.1.15,2013-05-18 21:55:00,
2013-05-18 15:05:00,80.1,18.6,29.79,South,185,9.0,15.0,10,0.00,,,0.00,Wunderground v.1.15,2013-05-18 22:05:00,
2013-05-18 15:15:00,79.9,18.4,29.79,East,96,8.0,17.0,10,0.00,,,0.00,Wunderground v.1.15,2013-05-18 22:15:00,
2013-05-18 15:20:00,79.8,18.3,29.79,South,184,8.0,8.0,10,0.00,,,0.00,Wunderground v.1.15,2013-05-18 22:20:00,
2013-05-18 15:25:00,80.3,21.0,29.79,South,172,7.0,13.0,11,0.00,,,0.00,Wunderground v.1.15,2013-05-18 22:25:00,
2013-05-18 15:35:00,80.3,21.0,29.78,SSE,148,9.0,9.0,11,0.00,,,0.00,Wunderground v.1.15,2013-05-18 22:35:00,
2013-05-18 15:40:00,80.7,21.3,29.79,SW,236,6.0,19.0,11,0.00,,,0.00,Wunderground v.1.15,2013-05-18 22:40:00,
2013-05-18 15:45:00,79.4,22.3,29.79,SSE,161,9.0,19.0,12,0.00,,,0.00,Wunderground v.1.15,2013-05-18 22:45:00,
2013-05-18 15:50:00,79.4,22.3,29.79,SSW,198,7.0,8.0,12,0.00,,,0.00,Wunderground v.1.15,2013-05-18 22:50:00,
2013-05-18 15:55:00,79.4,24.2,29.79,SW,217,8.0,8.0,13,0.00,,,0.00,Wunderground v.1.15,2013-05-18 22:55:00,
2013-05-18 16:00:00,78.6,23.6,29.78,SSE,149,11.0,11.0,13,0.00,,,0.00,Wunderground v.1.15,2013-05-18 23:00:00,
2013-05-18 16:05:00,78.6,23.6,29.79,South,188,10.0,16.0,13,0.00,,,0.00,Wunderground v.1.15,2013-05-18 23:05:00,
2013-05-18 16:15:00,79.4,24.2,29.78,SSE,166,5.0,7.0,13,0.00,,,0.00,Wunderground v.1.15,2013-05-18 23:15:00,
2013-05-18 16:20:00,79.2,24.1,29.78,South,185,6.0,6.0,13,0.00,,,0.00,Wunderground v.1.15,2013-05-18 23:20:00,
2013-05-18 16:25:00,79.4,24.2,29.78,SE,133,7.0,12.0,13,0.00,,,0.00,Wunderground v.1.15,2013-05-18 23:25:00,
2013-05-18 16:30:00,78.8,23.8,29.79,SSE,161,9.0,12.0,13,0.00,,,0.00,Wunderground v.1.15,2013-05-18 23:30:00,
2013-05-18 16:40:00,78.1,23.2,29.78,WSW,255,7.0,7.0,13,0.00,,,0.00,Wunderground v.1.15,2013-05-18 23:40:00,
2013-05-18 16:45:00,78.5,23.5,29.78,SSE,151,6.0,7.0,13,0.00,,,0.00,Wunderground v.1.15,2013-05-18 23:45:00,
2013-05-18 16:50:00,78.5,21.6,29.77,SE,127,7.0,14.0,12,0.00,,,0.00,Wunderground v.1.15,2013-05-18 23:50:00,
2013-05-18 16:55:00,77.9,21.2,29.77,SE,126,11.0,15.0,12,0.00,,,0.00,Wunderground v.1.15,2013-05-18 23:55:00,
2013-05-18 17:00:00,78.3,21.5,29.77,SSW,208,11.0,12.0,12,0.00,,,0.00,Wunderground v.1.15,2013-05-19 00:00:00,
2013-05-18 17:05:00,78.5,21.6,29.78,SSE,163,10.0,12.0,12,0.00,,,0.00,Wunderground v.1.15,2013-05-19 00:05:00,
2013-05-18 17:15:00,77.7,21.0,29.78,SW,231,8.0,10.0,12,0.00,,,0.00,Wunderground v.1.15,2013-05-19 00:15:00,
2013-05-18 17:20:00,78.1,21.3,29.78,SSE,150,7.0,7.0,12,0.00,,,0.00,Wunderground v.1.15,2013-05-19 00:20:00,
2013-05-18 17:25:00,78.1,19.3,29.78,South,188,7.0,7.0,11,0.00,,,0.00,Wunderground v.1.15,2013-05-19 00:25:00,
2013-05-18 17:30:00,77.7,21.0,29.78,SSE,157,8.0,10.0,12,0.00,,,0.00,Wunderground v.1.15,2013-05-19 00:30:00,
2013-05-18 17:35:00,77.6,18.9,29.78,SSE,165,9.0,10.0,11,0.00,,,0.00,Wunderground v.1.15,2013-05-19 00:35:00,
2013-05-18 17:45:00,77.4,18.7,29.78,SW,230,8.0,11.0,11,0.00,,,0.00,Wunderground v.1.15,2013-05-19 00:45:00,
2013-05-18 17:50:00,77.6,18.9,29.78,SSE,151,6.0,11.0,11,0.00,,,0.00,Wunderground v.1.15,2013-05-19 00:50:00,
2013-05-18 17:55:00,77.4,18.7,29.79,SSE,162,5.0,11.0,11,0.00,,,0.00,Wunderground v.1.15,2013-05-19 00:55:00,
2013-05-18 18:00:00,77.2,20.6,29.78,WSW,240,5.0,8.0,12,0.00,,,0.00,Wunderground v.1.15,2013-05-19 01:00:00,
2013-05-18 18:05:00,77.2,18.6,29.79,WSW,238,4.0,8.0,11,0.00,,,0.00,Wunderground v.1.15,2013-05-19 01:05:00,
2013-05-18 18:15:00,77.0,18.4,29.79,South,184,3.0,4.0,11,0.00,,,0.00,Wunderground v.1.15,2013-05-19 01:15:00,
2013-05-18 18:20:00,76.7,18.2,29.79,WSW,237,5.0,5.0,11,0.00,,,0.00,Wunderground v.1.15,2013-05-19 01:20:00,
2013-05-18 18:25:00,76.3,17.9,29.79,SSE,148,5.0,6.0,11,0.00,,,0.00,Wunderground v.1.15,2013-05-19 01:25:00,
2013-05-18 18:30:00,76.0,19.7,29.79,South,169,5.0,8.0,12,0.00,,,0.00,Wunderground v.1.15,2013-05-19 01:30:00,
2013-05-18 18:35:00,75.3,19.1,29.80,SSE,162,6.0,8.0,12,0.00,,,0.00,Wunderground v.1.15,2013-05-19 01:35:00,
2013-05-18 18:40:00,74.7,18.7,29.79,SSE,148,6.0,10.0,12,0.00,,,0.00,Wunderground v.1.15,2013-05-19 01:40:00,
2013-05-18 18:50:00,74.0,18.1,29.80,SW,229,7.0,7.0,12,0.00,,,0.00,Wunderground v.1.15,2013-05-19 01:50:00,
2013-05-18 18:55:00,74.2,18.3,29.80,SSW,198,10.0,10.0,12,0.00,,,0.00,Wunderground v.1.15,2013-05-19 01:55:00,
2013-05-18 19:00:00,74.0,18.1,29.80,SSW,198,6.0,6.0,12,0.00,,,0.00,Wunderground v.1.15,2013-05-19 02:00:00,
2013-05-18 19:05:00,73.3,17.6,29.81,SSW,192,2.0,6.0,12,0.00,,,0.00,Wunderground v.1.15,2013-05-19 02:05:00,
2013-05-18 19:15:00,73.0,17.3,29.80,WSW,243,6.0,13.0,12,0.00,,,0.00,Wunderground v.1.15,2013-05-19 02:15:00,
2013-05-18 19:25:00,73.2,17.5,29.81,WSW,253,7.0,12.0,12,0.00,,,0.00,Wunderground v.1.15,2013-05-19 02:25:00,
2013-05-18 19:30:00,72.8,17.2,29.81,South,177,5.0,7.0,12,0.00,,,0.00,Wunderground v.1.15,2013-05-19 02:30:00,
2013-05-18 19:35:00,72.7,17.1,29.81,SW,232,5.0,8.0,12,0.00,,,0.00,Wunderground v.1.15,2013-05-19 02:35:00,
2013-05-18 19:40:00,72.7,17.1,29.81,SSW,198,7.0,7.0,12,0.00,,,0.00,Wunderground v.1.15,2013-05-19 02:40:00,
2013-05-18 19:45:00,72.1,18.5,29.81,South,187,6.0,7.0,13,0.00,,,0.00,Wunderground v.1.15,2013-05-19 02:45:00,
2013-05-18 19:55:00,71.6,19.8,29.81,SSE,149,4.0,6.0,14,0.00,,,0.00,Wunderground v.1.15,2013-05-19 02:55:00,
2013-05-18 20:00:00,71.6,18.1,29.81,SSE,151,4.0,5.0,13,0.00,,,0.00,Wunderground v.1.15,2013-05-19 03:00:00,
2013-05-18 20:05:00,71.5,19.8,29.81,SW,219,5.0,5.0,14,0.00,,,0.00,Wunderground v.1.15,2013-05-19 03:05:00,
2013-05-18 20:15:00,71.5,19.8,29.82,SSE,167,3.0,5.0,14,0.00,,,0.00,Wunderground v.1.15,2013-05-19 03:15:00,
2013-05-18 20:20:00,71.5,19.8,29.81,South,188,4.0,4.0,14,0.00,,,0.00,Wunderground v.1.15,2013-05-19 03:20:00,
2013-05-18 20:25:00,71.3,21.2,29.82,South,185,4.0,4.0,15,0.00,,,0.00,Wunderground v.1.15,2013-05-19 03:25:00,
2013-05-18 20:35:00,70.3,21.9,29.82,South,185,3.0,3.0,16,0.00,,,0.00,Wunderground v.1.15,2013-05-19 03:35:00,
2013-05-18 20:40:00,70.1,20.3,29.82,South,184,2.0,2.0,15,0.00,,,0.00,Wunderground v.1.15,2013-05-19 03:40:00,
2013-05-18 20:45:00,70.1,21.8,29.82,SSE,165,3.0,5.0,16,0.00,,,0.00,Wunderground v.1.15,2013-05-19 03:45:00,
2013-05-18 20:50:00,70.4,20.5,29.82,SSE,165,4.0,4.0,15,0.00,,,0.00,Wunderground v.1.15,2013-05-19 03:50:00,
2013-05-18 20:55:00,69.9,21.6,29.82,SSE,165,2.0,4.0,16,0.00,,,0.00,Wunderground v.1.15,2013-05-19 03:55:00,
2013-05-18 21:00:00,69.4,21.2,29.82,SSE,165,2.0,2.0,16,0.00,,,0.00,Wunderground v.1.15,2013-05-19 04:00:00,
2013-05-18 21:05:00,68.8,22.2,29.83,SSE,165,1.0,2.0,17,0.00,,,0.00,Wunderground v.1.15,2013-05-19 04:05:00,
2013-05-18 21:10:00,68.4,23.2,29.83,SSE,165,2.0,2.0,18,0.00,,,0.00,Wunderground v.1.15,2013-05-19 04:10:00,
2013-05-18 21:15:00,68.6,23.4,29.83,SSE,165,2.0,2.0,18,0.00,,,0.00,Wunderground v.1.15,2013-05-19 04:15:00,
2013-05-18 21:20:00,68.6,22.0,29.83,SSE,165,0.0,0.0,17,0.00,,,0.00,Wunderground v.1.15,2013-05-19 04:20:00,
2013-05-18 21:30:00,67.8,22.7,29.83,SSE,165,0.0,0.0,18,0.00,,,0.00,Wunderground v.1.15,2013-05-19 04:30:00,
2013-05-18 21:35:00,67.3,23.6,29.83,SSE,165,1.0,1.0,19,0.00,,,0.00,Wunderground v.1.15,2013-05-19 04:35:00,
2013-05-18 21:40:00,67.6,23.8,29.83,SSE,165,1.0,1.0,19,0.00,,,0.00,Wunderground v.1.15,2013-05-19 04:40:00,
2013-05-18 21:45:00,67.9,24.1,29.83,SSE,165,0.0,1.0,19,0.00,,,0.00,Wunderground v.1.15,2013-05-19 04:45:00,
2013-05-18 21:50:00,66.9,24.5,29.83,SSE,165,1.0,1.0,20,0.00,,,0.00,Wunderground v.1.15,2013-05-19 04:50:00,
2013-05-18 22:00:00,65.2,24.2,29.83,SSE,165,1.0,1.0,21,0.00,,,0.00,Wunderground v.1.15,2013-05-19 05:00:00,
2013-05-18 22:05:00,65.8,24.7,29.83,SSE,165,0.0,2.0,21,0.00,,,0.00,Wunderground v.1.15,2013-05-19 05:05:00,
2013-05-18 22:15:00,66.4,25.2,29.83,SSE,165,1.0,4.0,21,0.00,,,0.00,Wunderground v.1.15,2013-05-19 05:15:00,
2013-05-18 22:20:00,66.1,26.1,29.83,SSE,165,2.0,2.0,22,0.00,,,0.00,Wunderground v.1.15,2013-05-19 05:20:00,
2013-05-18 22:25:00,66.3,26.3,29.83,SSE,164,3.0,4.0,22,0.00,,,0.00,Wunderground v.1.15,2013-05-19 05:25:00,
2013-05-18 22:35:00,66.1,27.2,29.83,SSE,165,1.0,5.0,23,0.00,,,0.00,Wunderground v.1.15,2013-05-19 05:35:00,
2013-05-18 22:40:00,66.0,27.1,29.83,SSE,165,1.0,1.0,23,0.00,,,0.00,Wunderground v.1.15,2013-05-19 05:40:00,
2013-05-18 22:45:00,66.0,27.1,29.83,SSE,164,1.0,1.0,23,0.00,,,0.00,Wunderground v.1.15,2013-05-19 05:45:00,
2013-05-18 22:50:00,66.3,27.4,29.83,SSE,163,2.0,4.0,23,0.00,,,0.00,Wunderground v.1.15,2013-05-19 05:50:00,
2013-05-18 22:55:00,67.4,27.2,29.83,South,169,5.0,6.0,22,0.00,,,0.00,Wunderground v.1.15,2013-05-19 05:55:00,
2013-05-18 23:00:00,67.9,27.6,29.83,South,176,6.0,6.0,22,0.00,,,0.00,Wunderground v.1.15,2013-05-19 06:00:00,
2013-05-18 23:05:00,68.1,26.7,29.83,South,174,5.0,7.0,21,0.00,,,0.00,Wunderground v.1.15,2013-05-19 06:05:00,
2013-05-18 23:15:00,67.6,27.4,29.83,South,169,5.0,6.0,22,0.00,,,0.00,Wunderground v.1.15,2013-05-19 06:15:00,
2013-05-18 23:20:00,67.6,26.2,29.83,South,184,5.0,5.0,21,0.00,,,0.00,Wunderground v.1.15,2013-05-19 06:20:00,
2013-05-18 23:25:00,67.8,26.4,29.83,South,190,6.0,6.0,21,0.00,,,0.00,Wunderground v.1.15,2013-05-19 06:25:00,
2013-05-18 23:30:00,67.9,26.5,29.83,SSE,166,6.0,6.0,21,0.00,,,0.00,Wunderground v.1.15,2013-05-19 06:30:00,
2013-05-18 23:35:00,67.6,26.2,29.83,SW,220,6.0,6.0,21,0.00,,,0.00,Wunderground v.1.15,2013-05-19 06:35:00,
2013-05-18 23:40:00,67.3,26.0,29.83,SW,236,5.0,16.0,21,0.00,,,0.00,Wunderground v.1.15,2013-05-19 06:40:00,
2013-05-18 23:45:00,67.8,26.4,29.83,SW,230,5.0,16.0,21,0.00,,,0.00,Wunderground v.1.15,2013-05-19 06:45:00,
2013-05-18 23:50:00,67.4,27.2,29.84,SW,225,5.0,5.0,22,0.00,,,0.00,Wunderground v.1.15,2013-05-19 06:50:00,
2013-05-18 23:55:00,66.6,27.6,29.84,SW,225,3.0,5.0,23,0.00,,,0.00,Wunderground v.1.15,2013-05-19 06:55:00,